createdAt,value
2017-10-30T00:00:28.397Z,102530.45
2017-10-30T00:02:56.706Z,102527.36
2017-10-30T00:05:25.014Z,102526.81
2017-10-30T00:07:54.092Z,102518.46
2017-10-30T00:10:22.409Z,102525.42
2017-10-30T00:12:50.725Z,102526.13
2017-10-30T00:15:19.052Z,102536.59
2017-10-30T00:17:47.379Z,102532.96
2017-10-30T00:22:50.231Z,102535.95
2017-10-30T00:25:18.583Z,102533.06
2017-10-30T00:27:46.890Z,102538.20
2017-10-30T00:30:15.217Z,102554.83
2017-10-30T00:32:43.522Z,102562.08
2017-10-30T00:35:11.834Z,102557.45
2017-10-30T00:37:40.179Z,102547.42
2017-10-30T00:40:08.525Z,102542.83
2017-10-30T00:42:36.856Z,102547.87
2017-10-30T00:45:05.187Z,102541.87
2017-10-30T00:47:34.277Z,102549.42
2017-10-30T00:50:03.344Z,102550.55
2017-10-30T00:52:31.669Z,102551.05
2017-10-30T00:55:00.753Z,102550.62
2017-10-30T00:57:29.066Z,102549.23
2017-10-30T00:59:57.415Z,102544.65
2017-10-30T01:02:26.510Z,102547.24
2017-10-30T01:04:54.826Z,102546.99
2017-10-30T01:07:23.156Z,102546.42
2017-10-30T01:09:51.494Z,102551.46
2017-10-30T01:12:19.789Z,102548.51
2017-10-30T01:14:48.098Z,102550.19
2017-10-30T01:17:16.434Z,102549.20
2017-10-30T01:19:44.744Z,102555.46
2017-10-30T01:22:13.859Z,102566.66
2017-10-30T01:24:42.184Z,102561.76
2017-10-30T01:27:10.505Z,102551.25
2017-10-30T01:29:39.668Z,102556.50
2017-10-30T01:32:07.996Z,102557.77
2017-10-30T01:34:36.308Z,102550.95
2017-10-30T01:37:05.415Z,102553.81
2017-10-30T01:39:33.738Z,102562.25
2017-10-30T01:42:02.050Z,102560.55
2017-10-30T01:44:30.391Z,102549.17
2017-10-30T01:46:58.712Z,102549.16
2017-10-30T01:49:27.028Z,102546.43
2017-10-30T01:51:55.389Z,102553.56
2017-10-30T01:54:24.485Z,102546.00
2017-10-30T01:56:52.814Z,102550.05
2017-10-30T01:59:21.186Z,102556.17
2017-10-30T02:01:49.492Z,102563.80
2017-10-30T02:04:17.820Z,102561.70
2017-10-30T02:06:46.916Z,102569.77
2017-10-30T02:09:15.252Z,102557.84
2017-10-30T02:11:43.574Z,102558.47
2017-10-30T02:14:12.675Z,102556.36
2017-10-30T02:16:41.764Z,102566.05
2017-10-30T02:19:10.106Z,102575.72
2017-10-30T02:21:38.450Z,102574.39
2017-10-30T02:24:06.758Z,102576.64
2017-10-30T02:26:35.833Z,102567.88
2017-10-30T02:29:04.151Z,102553.70
2017-10-30T02:31:32.520Z,102568.22
2017-10-30T02:34:00.848Z,102574.34
2017-10-30T02:36:29.173Z,102574.55
2017-10-30T02:38:57.518Z,102581.85
2017-10-30T02:41:26.698Z,102579.52
2017-10-30T02:43:54.988Z,102578.89
2017-10-30T02:46:23.301Z,102581.72
2017-10-30T02:48:51.624Z,102577.78
2017-10-30T02:51:19.967Z,102582.69
2017-10-30T02:53:48.304Z,102588.37
2017-10-30T02:56:16.643Z,102594.47
2017-10-30T02:58:44.998Z,102605.84
2017-10-30T03:01:13.360Z,102593.64
2017-10-30T03:03:41.694Z,102594.52
2017-10-30T03:06:10.006Z,102604.25
2017-10-30T03:08:38.335Z,102596.39
2017-10-30T03:11:07.401Z,102588.98
2017-10-30T03:13:35.734Z,102593.43
2017-10-30T03:16:04.081Z,102598.20
2017-10-30T03:18:33.136Z,102600.17
2017-10-30T03:21:01.571Z,102611.31
2017-10-30T03:23:29.920Z,102612.44
2017-10-30T03:25:58.242Z,102608.66
2017-10-30T03:28:26.574Z,102611.56
2017-10-30T03:30:54.876Z,102618.51
2017-10-30T03:33:23.960Z,102621.38
2017-10-30T03:35:52.284Z,102625.94
2017-10-30T03:38:20.592Z,102626.15
2017-10-30T03:40:48.904Z,102635.89
2017-10-30T03:43:17.208Z,102642.82
2017-10-30T03:45:46.272Z,102638.69
2017-10-30T03:48:14.614Z,102638.12
2017-10-30T03:50:42.950Z,102637.84
2017-10-30T03:53:12.050Z,102637.45
2017-10-30T03:55:41.135Z,102639.20
2017-10-30T03:58:09.423Z,102647.97
2017-10-30T04:00:37.751Z,102654.13
2017-10-30T04:03:06.046Z,102650.48
2017-10-30T04:05:34.368Z,102656.86
2017-10-30T04:08:02.695Z,102664.42
2017-10-30T04:10:31.002Z,102661.17
2017-10-30T04:12:59.299Z,102658.36
2017-10-30T04:15:27.625Z,102672.03
2017-10-30T04:17:55.962Z,102676.38
2017-10-30T04:20:24.284Z,102667.19
2017-10-30T04:22:52.586Z,102667.61
2017-10-30T04:25:20.905Z,102670.14
2017-10-30T04:27:49.265Z,102665.09
2017-10-30T04:30:17.574Z,102669.48
2017-10-30T04:32:45.892Z,102680.77
2017-10-30T04:35:14.218Z,102684.05
2017-10-30T04:37:42.541Z,102671.86
2017-10-30T04:40:10.883Z,102683.08
2017-10-30T04:42:39.220Z,102676.73
2017-10-30T04:45:07.575Z,102684.51
2017-10-30T04:47:36.671Z,102680.80
2017-10-30T04:50:05.007Z,102675.68
2017-10-30T04:52:33.335Z,102688.78
2017-10-30T04:55:01.671Z,102688.01
2017-10-30T04:57:29.989Z,102685.84
2017-10-30T04:59:58.527Z,102690.42
2017-10-30T05:02:26.876Z,102697.56
2017-10-30T05:04:55.210Z,102695.05
2017-10-30T05:07:23.524Z,102696.52
2017-10-30T05:09:51.836Z,102702.26
2017-10-30T05:12:20.164Z,102695.39
2017-10-30T05:14:48.493Z,102695.39
2017-10-30T05:17:16.805Z,102694.06
2017-10-30T05:19:45.142Z,102691.54
2017-10-30T05:22:14.271Z,102691.61
2017-10-30T05:24:44.127Z,102697.42
2017-10-30T05:27:12.815Z,102691.61
2017-10-30T05:29:41.140Z,102690.34
2017-10-30T05:32:09.459Z,102692.03
2017-10-30T05:34:37.781Z,102692.52
2017-10-30T05:37:07.831Z,102703.17
2017-10-30T05:39:36.143Z,102705.83
2017-10-30T05:42:04.481Z,102700.92
2017-10-30T05:44:32.805Z,102703.87
2017-10-30T05:47:01.160Z,102713.67
2017-10-30T05:49:29.485Z,102720.33
2017-10-30T05:51:57.799Z,102720.81
2017-10-30T05:54:26.126Z,102725.66
2017-10-30T05:56:54.439Z,102732.66
2017-10-30T05:59:22.756Z,102729.66
2017-10-30T06:01:51.093Z,102731.83
2017-10-30T06:04:19.647Z,102725.37
2017-10-30T06:06:47.999Z,102722.55
2017-10-30T06:09:16.341Z,102718.14
2017-10-30T06:11:44.643Z,102726.75
2017-10-30T06:14:12.960Z,102725.14
2017-10-30T06:16:41.421Z,102738.39
2017-10-30T06:19:09.803Z,102743.83
2017-10-30T06:21:38.898Z,102742.70
2017-10-30T06:24:07.224Z,102743.83
2017-10-30T06:26:35.550Z,102747.12
2017-10-30T06:29:04.641Z,102749.58
2017-10-30T06:31:33.641Z,102745.70
2017-10-30T06:34:03.195Z,102752.98
2017-10-30T06:36:32.357Z,102760.84
2017-10-30T06:39:01.455Z,102758.80
2017-10-30T06:41:30.561Z,102767.14
2017-10-30T06:43:58.875Z,102766.16
2017-10-30T06:46:27.196Z,102768.73
2017-10-30T06:48:55.503Z,102782.11
2017-10-30T06:51:24.589Z,102785.69
2017-10-30T06:53:52.957Z,102786.88
2017-10-30T06:56:21.276Z,102791.58
2017-10-30T06:58:50.267Z,102793.02
2017-10-30T07:01:18.684Z,102797.09
2017-10-30T07:03:46.987Z,102792.67
2017-10-30T07:06:15.317Z,102794.88
2017-10-30T07:08:43.639Z,102803.36
2017-10-30T07:11:12.004Z,102810.94
2017-10-30T07:13:40.375Z,102808.30
2017-10-30T07:16:08.701Z,102814.34
2017-10-30T07:18:37.207Z,102810.13
2017-10-30T07:21:05.544Z,102815.38
2017-10-30T07:23:33.901Z,102821.55
2017-10-30T07:26:02.993Z,102823.38
2017-10-30T07:28:32.114Z,102826.89
2017-10-30T07:31:00.457Z,102828.72
2017-10-30T07:33:29.457Z,102826.33
2017-10-30T07:35:57.883Z,102833.34
2017-10-30T07:38:26.215Z,102836.28
2017-10-30T07:40:54.551Z,102836.25
2017-10-30T07:43:22.920Z,102839.36
2017-10-30T07:45:51.261Z,102843.39
2017-10-30T07:48:19.569Z,102840.57
2017-10-30T07:50:47.899Z,102846.63
2017-10-30T07:53:16.216Z,102848.52
2017-10-30T07:55:45.337Z,102852.59
2017-10-30T07:58:13.713Z,102846.93
2017-10-30T08:00:42.835Z,102862.91
2017-10-30T08:03:11.225Z,102863.84
2017-10-30T08:05:39.598Z,102860.98
2017-10-30T08:08:07.905Z,102864.97
2017-10-30T08:10:39.296Z,102872.47
2017-10-30T08:13:08.430Z,102871.97
2017-10-30T08:15:36.746Z,102875.91
2017-10-30T08:18:05.119Z,102875.66
2017-10-30T08:20:33.476Z,102876.45
2017-10-30T08:23:01.821Z,102867.30
2017-10-30T08:25:31.119Z,102877.06
2017-10-30T08:27:59.459Z,102867.67
2017-10-30T08:30:27.799Z,102877.63
2017-10-30T08:32:56.851Z,102874.55
2017-10-30T08:37:52.781Z,102876.36
2017-10-30T08:40:21.092Z,102878.68
2017-10-30T08:42:49.413Z,102886.12
2017-10-30T08:45:17.726Z,102888.00
2017-10-30T08:47:47.045Z,102890.16
2017-10-30T08:50:16.375Z,102883.48
2017-10-30T08:52:44.716Z,102884.30
2017-10-30T08:55:13.023Z,102880.56
2017-10-30T08:57:41.327Z,102883.09
2017-10-30T09:00:10.593Z,102878.74
2017-10-30T09:02:39.709Z,102879.95
2017-10-30T09:05:08.063Z,102879.80
2017-10-30T09:07:36.407Z,102880.99
2017-10-30T09:10:05.537Z,102881.37
2017-10-30T09:12:33.900Z,102884.19
2017-10-30T09:15:02.213Z,102878.25
2017-10-30T09:17:30.511Z,102870.46
2017-10-30T09:19:58.852Z,102877.51
2017-10-30T09:22:27.183Z,102881.80
2017-10-30T09:24:55.541Z,102886.92
2017-10-30T09:27:23.854Z,102889.82
2017-10-30T09:29:52.973Z,102887.80
2017-10-30T09:32:22.191Z,102893.64
2017-10-30T09:34:50.506Z,102888.41
2017-10-30T09:37:18.833Z,102888.75
2017-10-30T09:39:47.159Z,102894.17
2017-10-30T09:42:15.511Z,102899.72
2017-10-30T09:44:43.841Z,102901.75
2017-10-30T09:47:12.165Z,102905.53
2017-10-30T09:49:41.247Z,102902.62
2017-10-30T09:52:10.327Z,102913.67
2017-10-30T09:54:38.718Z,102917.48
2017-10-30T09:57:07.048Z,102911.22
2017-10-30T09:59:35.376Z,102919.78
2017-10-30T10:02:03.732Z,102909.45
2017-10-30T10:04:32.055Z,102917.48
2017-10-30T10:07:01.154Z,102907.30
2017-10-30T10:09:30.256Z,102924.00
2017-10-30T10:11:59.402Z,102924.58
2017-10-30T10:14:28.457Z,102924.50
2017-10-30T10:16:57.953Z,102926.78
2017-10-30T10:19:27.058Z,102929.75
2017-10-30T10:21:56.164Z,102928.25
2017-10-30T10:24:25.259Z,102929.81
2017-10-30T10:26:54.358Z,102926.39
2017-10-30T10:29:23.482Z,102935.58
2017-10-30T10:31:51.793Z,102935.08
2017-10-30T10:34:20.767Z,102945.23
2017-10-30T10:36:49.095Z,102934.13
2017-10-30T10:39:17.430Z,102930.56
2017-10-30T10:41:45.748Z,102932.38
2017-10-30T10:44:14.075Z,102931.91
2017-10-30T10:46:42.398Z,102934.20
2017-10-30T10:49:10.788Z,102937.66
2017-10-30T10:51:39.178Z,102942.25
2017-10-30T10:54:07.518Z,102938.75
2017-10-30T10:56:35.838Z,102939.52
2017-10-30T10:59:04.150Z,102934.72
2017-10-30T11:01:33.233Z,102934.22
2017-10-30T11:04:01.578Z,102934.22
2017-10-30T11:06:29.911Z,102936.37
2017-10-30T11:08:59.017Z,102932.94
2017-10-30T11:11:28.116Z,102945.74
2017-10-30T11:13:57.300Z,102950.19
2017-10-30T11:16:26.414Z,102948.55
2017-10-30T11:18:55.502Z,102940.48
2017-10-30T11:21:23.832Z,102945.70
2017-10-30T11:23:52.172Z,102935.49
2017-10-30T11:26:21.274Z,102939.60
2017-10-30T11:28:50.366Z,102932.39
2017-10-30T11:31:18.699Z,102937.41
2017-10-30T11:33:47.084Z,102945.53
2017-10-30T11:36:15.453Z,102944.34
2017-10-30T11:38:43.768Z,102944.41
2017-10-30T11:41:12.131Z,102946.52
2017-10-30T11:43:40.457Z,102947.94
2017-10-30T11:46:09.562Z,102945.05
2017-10-30T11:48:38.624Z,102939.55
2017-10-30T11:51:06.948Z,102944.96
2017-10-30T11:53:35.323Z,102945.37
2017-10-30T11:56:04.530Z,102945.97
2017-10-30T11:58:33.572Z,102940.68
2017-10-30T12:01:01.891Z,102946.59
2017-10-30T12:03:30.206Z,102946.77
2017-10-30T12:05:58.544Z,102953.61
2017-10-30T12:08:26.868Z,102960.95
2017-10-30T12:10:55.202Z,102958.19
2017-10-30T12:13:23.546Z,102951.72
2017-10-30T12:15:51.864Z,102952.72
2017-10-30T12:18:20.194Z,102955.70
2017-10-30T12:20:48.583Z,102950.58
2017-10-30T12:23:17.169Z,102948.81
2017-10-30T12:25:45.539Z,102955.95
2017-10-30T12:28:13.833Z,102958.72
2017-10-30T12:30:42.162Z,102961.11
2017-10-30T12:33:10.531Z,102968.24
2017-10-30T12:35:38.842Z,102964.22
2017-10-30T12:38:07.258Z,102960.98
2017-10-30T12:40:35.640Z,102962.88
2017-10-30T12:43:03.969Z,102957.59
2017-10-30T12:45:32.277Z,102965.91
2017-10-30T12:48:01.697Z,102955.02
2017-10-30T12:50:30.021Z,102962.63
2017-10-30T12:52:58.404Z,102963.59
2017-10-30T12:55:26.797Z,102956.20
2017-10-30T12:57:56.051Z,102965.28
2017-10-30T13:00:24.427Z,102972.23
2017-10-30T13:02:52.736Z,102975.95
2017-10-30T13:05:21.114Z,102971.33
2017-10-30T13:07:49.434Z,102964.90
2017-10-30T13:10:17.744Z,102969.09
2017-10-30T13:12:46.850Z,102967.57
2017-10-30T13:15:15.190Z,102969.28
2017-10-30T13:17:43.523Z,102969.44
2017-10-30T13:20:11.867Z,102967.17
2017-10-30T13:22:40.242Z,102970.09
2017-10-30T13:25:08.580Z,102969.36
2017-10-30T13:27:36.918Z,102971.95
2017-10-30T13:30:05.278Z,102971.86
2017-10-30T13:32:33.730Z,102973.61
2017-10-30T13:35:02.207Z,102973.53
2017-10-30T13:37:30.537Z,102972.84
2017-10-30T13:39:59.713Z,102973.77
2017-10-30T13:42:28.050Z,102970.14
2017-10-30T13:44:56.370Z,102968.71
2017-10-30T13:47:24.688Z,102968.27
2017-10-30T13:49:53.033Z,102967.44
2017-10-30T13:52:21.382Z,102965.43
2017-10-30T13:54:49.701Z,102960.73
2017-10-30T13:57:18.040Z,102968.70
2017-10-30T13:59:46.347Z,102968.60
2017-10-30T14:02:14.707Z,102970.47
2017-10-30T14:04:43.033Z,102969.19
2017-10-30T14:07:11.403Z,102972.25
2017-10-30T14:09:39.730Z,102971.33
2017-10-30T14:12:08.805Z,102977.23
2017-10-30T14:17:11.814Z,102988.53
2017-10-30T14:19:40.145Z,102980.39
2017-10-30T14:22:08.480Z,102979.30
2017-10-30T14:24:36.812Z,102971.22
2017-10-30T14:27:05.157Z,102968.04
2017-10-30T14:29:33.487Z,102968.97
2017-10-30T14:32:01.802Z,102967.72
2017-10-30T14:34:30.133Z,102963.94
2017-10-30T14:36:59.093Z,102968.73
2017-10-30T14:39:27.407Z,102968.71
2017-10-30T14:41:55.727Z,102964.09
2017-10-30T14:44:24.087Z,102961.75
2017-10-30T14:46:52.524Z,102966.57
2017-10-30T14:49:21.639Z,102963.89
2017-10-30T14:51:49.963Z,102965.42
2017-10-30T14:54:18.289Z,102968.52
2017-10-30T14:56:47.388Z,102968.08
2017-10-30T14:59:16.659Z,102961.89
2017-10-30T15:01:44.976Z,102964.42
2017-10-30T15:04:14.141Z,102967.44
2017-10-30T15:06:42.480Z,102977.91
2017-10-30T15:09:10.907Z,102975.05
2017-10-30T15:11:39.208Z,102979.89
2017-10-30T15:14:08.364Z,102976.16
2017-10-30T15:16:36.672Z,102985.67
2017-10-30T15:19:05.064Z,102973.93
2017-10-30T15:21:33.512Z,102979.45
2017-10-30T15:24:01.825Z,102970.55
2017-10-30T15:26:30.189Z,102964.51
2017-10-30T15:28:58.507Z,102965.34
2017-10-30T15:31:26.888Z,102963.85
2017-10-30T15:33:55.226Z,102961.98
2017-10-30T15:36:23.568Z,102962.75
2017-10-30T15:38:51.888Z,102958.52
2017-10-30T15:41:20.195Z,102962.52
2017-10-30T15:43:48.558Z,102960.89
2017-10-30T15:46:16.919Z,102959.09
2017-10-30T15:48:45.245Z,102963.50
2017-10-30T15:51:14.164Z,102961.86
2017-10-30T15:53:43.247Z,102955.06
2017-10-30T15:56:12.355Z,102957.66
2017-10-30T15:58:41.479Z,102961.25
2017-10-30T16:01:09.826Z,102964.05
2017-10-30T16:03:38.271Z,102963.66
2017-10-30T16:06:07.427Z,102962.66
2017-10-30T16:08:35.761Z,102969.23
2017-10-30T16:11:04.063Z,102970.11
2017-10-30T16:13:32.436Z,102972.66
2017-10-30T16:16:00.750Z,102977.77
2017-10-30T16:18:29.862Z,102977.09
2017-10-30T16:20:58.183Z,102977.46
2017-10-30T16:23:26.479Z,102986.13
2017-10-30T16:25:54.805Z,102978.74
2017-10-30T16:28:23.123Z,102977.59
2017-10-30T16:30:51.457Z,102981.63
2017-10-30T16:33:20.539Z,102977.52
2017-10-30T16:35:49.630Z,102977.59
2017-10-30T16:38:17.941Z,102979.01
2017-10-30T16:40:46.290Z,102970.69
2017-10-30T16:43:14.629Z,102974.50
2017-10-30T16:45:42.977Z,102976.11
2017-10-30T16:48:12.048Z,102976.92
2017-10-30T16:50:40.391Z,102978.48
2017-10-30T16:53:08.729Z,102981.36
2017-10-30T16:55:37.873Z,102977.53
2017-10-30T16:58:06.184Z,102976.55
2017-10-30T17:00:34.490Z,102975.66
2017-10-30T17:03:03.637Z,102979.53
2017-10-30T17:05:31.980Z,102979.14
2017-10-30T17:08:01.212Z,102978.14
2017-10-30T17:10:29.617Z,102979.97
2017-10-30T17:12:57.943Z,102982.25
2017-10-30T17:15:27.093Z,102978.16
2017-10-30T17:17:55.434Z,102988.06
2017-10-30T17:20:24.541Z,102982.89
2017-10-30T17:22:52.879Z,102991.53
2017-10-30T17:25:21.202Z,102989.95
2017-10-30T17:27:49.568Z,102992.63
2017-10-30T17:30:17.947Z,102998.80
2017-10-30T17:32:46.300Z,102996.14
2017-10-30T17:35:14.626Z,102998.27
2017-10-30T17:37:42.965Z,102996.19
2017-10-30T17:40:11.314Z,102997.67
2017-10-30T17:42:39.695Z,103001.53
2017-10-30T17:45:08.069Z,103005.78
2017-10-30T17:47:37.320Z,103002.89
2017-10-30T17:50:05.798Z,103001.62
2017-10-30T17:52:34.116Z,103005.33
2017-10-30T17:55:03.205Z,103003.11
2017-10-30T17:57:32.797Z,103011.80
2017-10-30T18:00:01.288Z,103008.34
2017-10-30T18:02:30.632Z,103011.17
2017-10-30T18:04:58.993Z,103010.75
2017-10-30T18:07:28.281Z,103012.02
2017-10-30T18:09:57.390Z,103014.13
2017-10-30T18:12:26.744Z,103012.59
2017-10-30T18:14:55.106Z,103011.81
2017-10-30T18:17:23.434Z,103014.17
2017-10-30T18:19:51.776Z,103012.64
2017-10-30T18:22:26.453Z,103008.28
2017-10-30T18:24:54.787Z,103012.44
2017-10-30T18:27:23.157Z,103014.27
2017-10-30T18:29:51.496Z,103012.56
2017-10-30T18:32:19.836Z,103007.73
2017-10-30T18:34:48.180Z,103011.16
2017-10-30T18:37:17.288Z,103013.81
2017-10-30T18:39:45.653Z,103010.81
2017-10-30T18:42:14.752Z,103008.91
2017-10-30T18:44:43.924Z,103016.59
2017-10-30T18:47:12.258Z,103012.27
2017-10-30T18:49:40.593Z,103009.45
2017-10-30T18:52:08.929Z,103016.91
2017-10-30T18:54:37.332Z,103019.97
2017-10-30T18:57:05.694Z,103009.62
2017-10-30T18:59:34.037Z,103013.83
2017-10-30T19:02:02.356Z,103015.02
2017-10-30T19:04:30.774Z,103009.22
2017-10-30T19:06:59.538Z,103012.25
2017-10-30T19:09:28.063Z,103010.55
2017-10-30T19:11:56.391Z,103014.19
2017-10-30T19:14:25.006Z,103010.88
2017-10-30T19:16:53.434Z,103010.11
2017-10-30T19:19:21.877Z,103000.02
2017-10-30T19:21:51.982Z,103001.41
2017-10-30T19:24:20.410Z,102992.73
2017-10-30T19:26:50.423Z,102993.42
2017-10-30T19:29:18.926Z,102999.51
2017-10-30T19:31:47.763Z,102995.84
2017-10-30T19:34:16.088Z,102998.28
2017-10-30T19:36:44.431Z,102998.82
2017-10-30T19:39:12.844Z,102995.50
2017-10-30T19:41:41.194Z,102997.03
2017-10-30T19:44:09.506Z,102998.61
2017-10-30T19:46:37.822Z,102993.02
2017-10-30T19:49:06.163Z,102994.70
2017-10-30T19:51:35.059Z,102998.72
2017-10-30T19:54:03.508Z,103005.33
2017-10-30T19:56:31.889Z,103010.84
2017-10-30T19:59:00.239Z,102998.18
2017-10-30T20:01:28.648Z,103001.70
2017-10-30T20:03:57.116Z,103000.28
2017-10-30T20:06:31.770Z,103000.09
2017-10-30T20:09:05.696Z,103004.52
2017-10-30T20:11:39.596Z,103004.30
2017-10-30T20:14:07.952Z,103011.75
2017-10-30T20:16:36.365Z,103009.66
2017-10-30T20:19:04.692Z,103018.02
2017-10-30T20:21:33.808Z,103015.88
2017-10-30T20:24:02.896Z,103019.17
2017-10-30T20:26:31.975Z,103019.25
2017-10-30T20:29:00.319Z,103016.73
2017-10-30T20:31:28.660Z,103021.85
2017-10-30T20:33:58.291Z,103025.29
2017-10-30T20:36:26.625Z,103028.81
2017-10-30T20:38:55.015Z,103026.22
2017-10-30T20:41:23.336Z,103019.87
2017-10-30T20:43:51.676Z,103025.64
2017-10-30T20:46:20.013Z,103024.65
2017-10-30T20:48:48.336Z,103025.19
2017-10-30T20:51:16.666Z,103025.14
2017-10-30T20:53:45.007Z,103027.98
2017-10-30T20:56:13.360Z,103029.09
2017-10-30T20:58:41.673Z,103025.42
2017-10-30T21:01:10.004Z,103027.14
2017-10-30T21:03:38.309Z,103016.27
2017-10-30T21:06:07.010Z,103018.61
2017-10-30T21:08:35.386Z,103016.00
2017-10-30T21:11:03.830Z,103020.09
2017-10-30T21:13:32.258Z,103015.89
2017-10-30T21:16:00.697Z,103020.25
2017-10-30T21:18:29.039Z,103030.04
2017-10-30T21:20:58.318Z,103024.23
2017-10-30T21:23:26.841Z,103023.11
2017-10-30T21:25:56.088Z,103027.51
2017-10-30T21:28:24.778Z,103025.48
2017-10-30T21:30:53.098Z,103025.36
2017-10-30T21:33:21.472Z,103026.61
2017-10-30T21:35:50.389Z,103024.39
2017-10-30T21:38:20.768Z,103019.96
2017-10-30T21:40:49.130Z,103017.36
2017-10-30T21:43:17.516Z,103022.17
2017-10-30T21:45:49.477Z,103018.72
2017-10-30T21:48:18.379Z,103015.12
2017-10-30T21:50:49.636Z,103016.05
2017-10-30T21:53:18.341Z,103004.62
2017-10-30T21:55:47.819Z,103003.56
2017-10-30T21:58:16.992Z,103004.25
2017-10-30T22:00:46.081Z,103010.48
2017-10-30T22:03:15.175Z,103000.05
2017-10-30T22:05:44.296Z,103006.48
2017-10-30T22:08:13.391Z,103001.28
2017-10-30T22:10:42.690Z,102997.95
2017-10-30T22:13:12.471Z,103000.41
2017-10-30T22:15:40.842Z,102999.06
2017-10-30T22:18:09.159Z,103000.33
2017-10-30T22:20:38.281Z,103004.64
2017-10-30T22:23:06.598Z,103000.92
2017-10-30T22:25:35.184Z,102999.66
2017-10-30T22:28:04.255Z,102999.66
2017-10-30T22:30:32.644Z,102996.80
2017-10-30T22:33:01.047Z,102990.98
2017-10-30T22:35:29.433Z,102992.32
2017-10-30T22:37:57.763Z,102988.70
2017-10-30T22:40:26.178Z,102992.25
2017-10-30T22:42:54.777Z,102989.08
2017-10-30T22:45:23.098Z,102985.52
2017-10-30T22:47:51.430Z,102985.98
2017-10-30T22:50:19.793Z,102984.91
2017-10-30T22:52:48.940Z,102986.97
2017-10-30T22:55:17.256Z,102982.12
2017-10-30T22:57:46.913Z,102986.17
2017-10-30T23:00:15.254Z,102992.63
2017-10-30T23:02:47.210Z,102990.15
2017-10-30T23:05:16.328Z,102988.81
2017-10-30T23:07:44.682Z,102991.60
2017-10-30T23:10:13.981Z,102988.09
2017-10-30T23:12:42.315Z,102982.31
2017-10-30T23:15:10.625Z,102983.05
2017-10-30T23:17:38.948Z,102981.20
2017-10-30T23:20:08.039Z,102980.55
2017-10-30T23:22:37.122Z,102970.77
2017-10-30T23:25:06.264Z,102972.75
2017-10-30T23:27:34.588Z,102968.97
2017-10-30T23:30:02.925Z,102968.52
2017-10-30T23:32:31.262Z,102966.33
2017-10-30T23:34:59.597Z,102967.86
2017-10-30T23:37:27.914Z,102965.19
2017-10-30T23:39:56.255Z,102958.27
2017-10-30T23:42:24.589Z,102963.23
2017-10-30T23:44:52.919Z,102966.60
2017-10-30T23:47:21.229Z,102966.98
2017-10-30T23:49:49.529Z,102967.18
2017-10-30T23:52:18.539Z,102969.20
2017-10-30T23:54:47.625Z,102962.94
2017-10-30T23:57:15.931Z,102965.77
2017-10-30T23:59:45.026Z,102960.23
